createdAt,value
2022-09-17T00:01:31.449Z,14.20
2022-09-17T00:04:04.110Z,14.20
2022-09-17T00:06:33.850Z,14.20
2022-09-17T00:09:02.369Z,14.20
2022-09-17T00:11:33.996Z,14.20
2022-09-17T00:14:06.069Z,14.20
2022-09-17T00:16:36.134Z,14.20
2022-09-17T00:19:05.623Z,14.30
2022-09-17T00:21:34.051Z,14.30
2022-09-17T00:24:05.113Z,14.30
2022-09-17T00:26:34.137Z,14.30
2022-09-17T00:29:04.372Z,14.20
2022-09-17T00:31:32.810Z,14.20
2022-09-17T00:34:03.199Z,14.20
2022-09-17T00:36:31.461Z,14.20
2022-09-17T00:39:01.355Z,14.20
2022-09-17T00:41:32.624Z,14.20
2022-09-17T00:44:03.733Z,14.20
2022-09-17T00:46:37.175Z,14.20
2022-09-17T00:49:13.751Z,14.20
2022-09-17T00:51:46.651Z,14.20
2022-09-17T00:54:15.128Z,14.20
2022-09-17T00:56:44.156Z,14.20
2022-09-17T00:59:13.739Z,14.20
2022-09-17T01:01:42.002Z,14.30
2022-09-17T01:04:18.126Z,14.20
2022-09-17T01:06:59.263Z,14.20
2022-09-17T01:09:35.098Z,14.20
2022-09-17T01:12:18.746Z,14.20
2022-09-17T01:15:03.517Z,14.10
2022-09-17T01:17:38.784Z,14.10
2022-09-17T01:20:41.407Z,14.10
2022-09-17T01:23:40.476Z,14.10
2022-09-17T01:26:29.327Z,14.10
2022-09-17T01:29:05.609Z,14.10
2022-09-17T01:31:45.062Z,14.10
2022-09-17T01:34:23.274Z,14.10
2022-09-17T01:37:04.664Z,14.10
2022-09-17T01:39:40.654Z,14.10
2022-09-17T01:42:16.753Z,14.10
2022-09-17T01:44:53.474Z,14.00
2022-09-17T01:47:27.644Z,14.00
2022-09-17T01:50:02.247Z,14.00
2022-09-17T01:52:33.556Z,13.90
2022-09-17T01:55:06.987Z,13.90
2022-09-17T01:57:41.296Z,13.90
2022-09-17T02:00:12.045Z,13.90
2022-09-17T02:02:47.084Z,13.80
2022-09-17T02:05:20.571Z,13.80
2022-09-17T02:07:54.548Z,13.80
2022-09-17T02:10:27.454Z,13.70
2022-09-17T02:13:01.149Z,13.70
2022-09-17T02:15:33.976Z,13.70
2022-09-17T02:18:09.928Z,13.60
2022-09-17T02:20:44.761Z,13.60
2022-09-17T02:23:18.155Z,13.60
2022-09-17T02:25:50.354Z,13.60
2022-09-17T02:28:25.450Z,13.60
2022-09-17T02:30:53.596Z,13.60
2022-09-17T02:33:24.165Z,13.60
2022-09-17T02:35:52.559Z,13.50
2022-09-17T02:38:25.740Z,13.50
2022-09-17T02:41:00.707Z,13.50
2022-09-17T02:43:38.218Z,13.50
2022-09-17T02:46:17.163Z,13.50
2022-09-17T02:49:08.737Z,13.50
2022-09-17T02:51:48.688Z,13.50
2022-09-17T02:54:25.770Z,13.50
2022-09-17T02:57:04.603Z,13.40
2022-09-17T02:59:41.899Z,13.40
2022-09-17T03:02:17.663Z,13.40
2022-09-17T03:04:50.385Z,13.40
2022-09-17T03:07:21.030Z,13.40
2022-09-17T03:09:49.111Z,13.40
2022-09-17T03:12:17.623Z,13.40
2022-09-17T03:14:45.731Z,13.40
2022-09-17T03:17:14.905Z,13.40
2022-09-17T03:19:42.975Z,13.40
2022-09-17T03:22:12.743Z,13.30
2022-09-17T03:24:41.063Z,13.30
2022-09-17T03:27:09.116Z,13.40
2022-09-17T03:29:37.256Z,13.30
2022-09-17T03:32:05.679Z,13.30
2022-09-17T03:34:33.942Z,13.40
2022-09-17T03:37:02.323Z,13.30
2022-09-17T03:39:32.180Z,13.30
2022-09-17T03:42:00.446Z,13.30
2022-09-17T03:44:28.562Z,13.30
2022-09-17T03:46:56.766Z,13.30
2022-09-17T03:49:25.045Z,13.30
2022-09-17T03:51:53.163Z,13.30
2022-09-17T03:54:24.152Z,13.20
2022-09-17T03:56:53.670Z,13.20
2022-09-17T03:59:29.347Z,13.20
2022-09-17T04:01:57.973Z,13.20
2022-09-17T04:04:26.136Z,13.10
2022-09-17T04:06:54.573Z,13.10
2022-09-17T04:09:25.619Z,13.10
2022-09-17T04:11:56.362Z,13.00
2022-09-17T04:14:24.577Z,13.00
2022-09-17T04:16:52.865Z,12.90
2022-09-17T04:19:20.994Z,12.90
2022-09-17T04:21:49.081Z,12.90
2022-09-17T04:24:20.295Z,12.80
2022-09-17T04:26:48.471Z,12.80
2022-09-17T04:29:17.939Z,12.80
2022-09-17T04:31:46.240Z,12.80
2022-09-17T04:34:14.347Z,12.70
2022-09-17T04:36:42.378Z,12.70
2022-09-17T04:39:10.472Z,12.70
2022-09-17T04:41:38.586Z,12.60
2022-09-17T04:44:06.706Z,12.60
2022-09-17T04:46:36.299Z,12.60
2022-09-17T04:49:05.054Z,12.60
2022-09-17T04:51:33.142Z,12.60
2022-09-17T04:54:01.287Z,12.50
2022-09-17T04:56:29.350Z,12.50
2022-09-17T04:58:57.449Z,12.50
2022-09-17T05:01:25.616Z,12.50
2022-09-17T05:03:55.263Z,12.40
2022-09-17T05:06:23.320Z,12.40
2022-09-17T05:08:51.402Z,12.40
2022-09-17T05:11:19.471Z,12.40
2022-09-17T05:13:47.628Z,12.40
2022-09-17T05:16:15.840Z,12.40
2022-09-17T05:18:43.958Z,12.40
2022-09-17T05:21:13.531Z,12.40
2022-09-17T05:23:41.574Z,12.40
2022-09-17T05:26:09.718Z,12.40
2022-09-17T05:28:37.893Z,12.40
2022-09-17T05:31:06.327Z,12.40
2022-09-17T05:33:34.651Z,12.40
2022-09-17T05:36:03.142Z,12.40
2022-09-17T05:38:32.594Z,12.40
2022-09-17T05:41:04.596Z,12.40
2022-09-17T05:43:32.697Z,12.50
2022-09-17T05:46:03.305Z,12.50
2022-09-17T05:48:31.613Z,12.60
2022-09-17T05:50:59.684Z,12.60
2022-09-17T05:53:27.976Z,12.70
2022-09-17T05:55:59.714Z,12.70
2022-09-17T05:58:28.928Z,12.80
2022-09-17T06:00:57.033Z,12.80
2022-09-17T06:03:25.188Z,12.80
2022-09-17T06:05:55.490Z,12.90
2022-09-17T06:08:23.968Z,12.90
2022-09-17T06:10:52.369Z,13.00
2022-09-17T06:13:22.427Z,12.90
2022-09-17T06:15:54.763Z,13.00
2022-09-17T06:18:23.235Z,13.10
2022-09-17T06:20:55.975Z,13.10
2022-09-17T06:23:25.168Z,13.10
2022-09-17T06:25:55.040Z,13.10
2022-09-17T06:28:25.058Z,13.20
2022-09-17T06:30:54.632Z,13.20
2022-09-17T06:33:23.016Z,13.30
2022-09-17T06:35:56.947Z,13.30
2022-09-17T06:38:25.239Z,13.40
2022-09-17T06:40:53.739Z,13.40
2022-09-17T06:43:22.558Z,13.60
2022-09-17T06:45:55.960Z,13.60
2022-09-17T06:48:24.615Z,13.70
2022-09-17T06:50:54.365Z,13.80
2022-09-17T06:53:22.618Z,13.90
2022-09-17T06:55:51.550Z,14.00
2022-09-17T06:58:20.222Z,14.10
2022-09-17T07:00:48.389Z,14.20
2022-09-17T07:03:23.038Z,14.30
2022-09-17T07:05:51.536Z,14.50
2022-09-17T07:08:19.689Z,14.60
2022-09-17T07:10:48.155Z,14.80
2022-09-17T07:13:16.561Z,14.90
2022-09-17T07:15:44.734Z,15.00
2022-09-17T07:18:13.720Z,15.10
2022-09-17T07:20:43.330Z,15.20
2022-09-17T07:23:11.414Z,15.40
2022-09-17T07:25:39.548Z,15.50
2022-09-17T07:28:07.945Z,15.70
2022-09-17T07:30:36.048Z,15.90
2022-09-17T07:33:04.410Z,16.10
2022-09-17T07:35:32.515Z,16.30
2022-09-17T07:38:01.953Z,16.40
2022-09-17T07:40:30.062Z,16.50
2022-09-17T07:42:59.313Z,16.60
2022-09-17T07:45:27.472Z,16.60
2022-09-17T07:47:55.589Z,16.60
2022-09-17T07:50:23.744Z,16.60
2022-09-17T07:52:51.912Z,16.70
2022-09-17T07:55:21.403Z,16.70
2022-09-17T07:57:53.670Z,16.70
2022-09-17T08:00:21.807Z,16.70
2022-09-17T08:02:57.415Z,16.80
2022-09-17T08:05:26.454Z,16.80
2022-09-17T08:07:56.148Z,16.90
2022-09-17T08:10:27.200Z,16.90
2022-09-17T08:12:57.646Z,16.90
2022-09-17T08:15:27.185Z,17.00
2022-09-17T08:17:55.351Z,17.10
2022-09-17T08:20:26.112Z,17.20
2022-09-17T08:23:00.795Z,17.40
2022-09-17T08:25:30.682Z,17.60
2022-09-17T08:27:58.786Z,17.70
2022-09-17T08:30:26.907Z,17.80
2022-09-17T08:32:56.899Z,18.00
2022-09-17T08:35:26.231Z,18.10
2022-09-17T08:37:57.019Z,18.20
2022-09-17T08:40:27.839Z,18.30
2022-09-17T08:43:01.626Z,18.40
2022-09-17T08:45:30.780Z,18.40
2022-09-17T08:48:05.511Z,18.50
2022-09-17T08:50:39.177Z,18.50
2022-09-17T08:53:30.789Z,18.50
2022-09-17T08:56:03.232Z,18.40
2022-09-17T08:59:21.462Z,18.50
2022-09-17T09:02:00.655Z,18.70
2022-09-17T09:04:58.220Z,19.00
2022-09-17T09:07:29.141Z,19.40
2022-09-17T09:10:09.686Z,19.70
2022-09-17T09:12:40.014Z,20.00
2022-09-17T09:15:22.333Z,20.20
2022-09-17T09:17:52.345Z,20.40
2022-09-17T09:20:29.877Z,20.40
2022-09-17T09:23:04.622Z,20.30
2022-09-17T09:25:43.700Z,20.20
2022-09-17T09:28:30.960Z,20.00
2022-09-17T09:31:14.354Z,19.70
2022-09-17T09:33:47.849Z,19.50
2022-09-17T09:36:21.653Z,19.20
2022-09-17T09:38:57.735Z,19.00
2022-09-17T09:41:31.339Z,18.80
2022-09-17T09:44:05.245Z,18.60
2022-09-17T09:46:57.815Z,18.40
2022-09-17T09:49:41.330Z,18.30
2022-09-17T09:52:21.411Z,18.20
2022-09-17T09:55:03.943Z,18.10
2022-09-17T09:57:39.056Z,18.00
2022-09-17T10:00:29.158Z,18.00
2022-09-17T10:03:05.398Z,18.00
2022-09-17T10:05:33.774Z,18.10
2022-09-17T10:08:02.464Z,18.20
2022-09-17T10:10:30.940Z,18.40
2022-09-17T10:13:14.861Z,18.80
2022-09-17T10:15:43.040Z,19.10
2022-09-17T10:18:20.115Z,19.50
2022-09-17T10:20:53.210Z,20.00
2022-09-17T10:23:21.595Z,20.40
2022-09-17T10:25:52.110Z,20.90
2022-09-17T10:28:34.487Z,21.40
2022-09-17T10:31:08.698Z,22.00
2022-09-17T10:33:41.948Z,22.40
2022-09-17T10:36:14.813Z,22.80
2022-09-17T10:38:46.165Z,23.00
2022-09-17T10:41:21.916Z,23.00
2022-09-17T10:43:51.000Z,23.00
2022-09-17T10:46:27.230Z,23.00
2022-09-17T10:49:11.039Z,23.00
2022-09-17T10:51:40.159Z,23.10
2022-09-17T10:54:28.999Z,23.30
2022-09-17T10:56:59.984Z,23.60
2022-09-17T10:59:50.811Z,23.90
2022-09-17T11:02:50.627Z,24.20
2022-09-17T11:05:42.819Z,24.20
2022-09-17T11:08:18.087Z,24.30
2022-09-17T11:10:54.261Z,24.40
2022-09-17T11:13:32.139Z,24.50
2022-09-17T11:16:14.856Z,24.60
2022-09-17T11:18:46.738Z,24.80
2022-09-17T11:21:38.832Z,25.00
2022-09-17T11:24:46.731Z,25.10
2022-09-17T11:27:32.153Z,25.00
2022-09-17T11:30:13.694Z,24.80
2022-09-17T11:33:29.841Z,24.50
2022-09-17T11:36:01.097Z,24.40
2022-09-17T11:38:36.890Z,24.40
2022-09-17T11:41:09.240Z,24.50
2022-09-17T11:43:41.409Z,24.50
2022-09-17T11:46:13.774Z,24.70
2022-09-17T11:48:47.336Z,24.90
2022-09-17T11:51:25.877Z,25.10
2022-09-17T11:53:59.229Z,25.30
2022-09-17T11:56:31.539Z,25.40
2022-09-17T11:59:05.022Z,25.50
2022-09-17T12:01:38.384Z,25.50
2022-09-17T12:04:31.310Z,25.30
2022-09-17T12:07:03.986Z,25.00
2022-09-17T12:09:38.109Z,24.70
2022-09-17T12:12:26.397Z,24.40
2022-09-17T12:15:04.960Z,24.10
2022-09-17T12:17:40.264Z,23.90
2022-09-17T12:20:21.569Z,23.80
2022-09-17T12:22:50.461Z,23.70
2022-09-17T12:25:20.263Z,23.50
2022-09-17T12:27:56.530Z,23.40
2022-09-17T12:30:29.750Z,23.40
2022-09-17T12:33:11.879Z,23.40
2022-09-17T12:36:10.309Z,23.50
2022-09-17T12:39:17.274Z,23.70
2022-09-17T12:41:59.578Z,23.90
2022-09-17T12:44:52.439Z,24.10
2022-09-17T12:47:46.278Z,24.00
2022-09-17T12:50:21.534Z,23.90
2022-09-17T12:53:04.390Z,23.70
2022-09-17T12:55:42.023Z,23.50
2022-09-17T12:58:25.231Z,23.20
2022-09-17T13:00:57.117Z,23.00
2022-09-17T13:03:34.230Z,22.80
2022-09-17T13:06:33.879Z,22.80
2022-09-17T13:09:27.428Z,23.00
2022-09-17T13:12:04.783Z,23.30
2022-09-17T13:14:55.213Z,23.60
2022-09-17T13:17:32.380Z,23.90
2022-09-17T13:20:06.667Z,24.20
2022-09-17T13:22:44.222Z,24.50
2022-09-17T13:25:15.498Z,24.70
2022-09-17T13:27:45.472Z,24.90
2022-09-17T13:30:16.322Z,24.90
2022-09-17T13:32:49.919Z,24.80
2022-09-17T13:35:52.639Z,24.50
2022-09-17T13:38:24.005Z,24.10
2022-09-17T13:40:53.672Z,23.60
2022-09-17T13:43:27.576Z,23.20
2022-09-17T13:46:23.555Z,22.80
2022-09-17T13:48:56.875Z,22.30
2022-09-17T13:51:45.685Z,21.90
2022-09-17T13:54:15.036Z,21.70
2022-09-17T13:56:47.109Z,21.30
2022-09-17T13:59:19.170Z,21.10
2022-09-17T14:02:37.960Z,20.90
2022-09-17T14:05:39.400Z,20.90
2022-09-17T14:08:31.596Z,20.90
2022-09-17T14:11:02.491Z,21.00
2022-09-17T14:13:55.223Z,21.20
2022-09-17T14:16:38.621Z,21.40
2022-09-17T14:19:20.539Z,21.60
2022-09-17T14:22:00.397Z,21.70
2022-09-17T14:24:36.027Z,21.80
2022-09-17T14:27:32.671Z,21.70
2022-09-17T14:30:12.860Z,21.60
2022-09-17T14:32:48.423Z,21.50
2022-09-17T14:35:24.670Z,21.40
2022-09-17T14:37:57.451Z,21.30
2022-09-17T14:40:26.307Z,21.20
2022-09-17T14:42:57.144Z,20.90
2022-09-17T14:45:32.574Z,20.70
2022-09-17T14:48:21.043Z,20.50
2022-09-17T14:50:50.504Z,20.30
2022-09-17T14:53:21.054Z,20.20
2022-09-17T14:55:50.837Z,20.20
2022-09-17T14:58:33.397Z,20.20
2022-09-17T15:01:01.824Z,20.30
2022-09-17T15:03:29.914Z,20.30
2022-09-17T15:05:59.507Z,20.40
2022-09-17T15:08:30.266Z,20.40
2022-09-17T15:11:00.803Z,20.30
2022-09-17T15:13:31.234Z,20.20
2022-09-17T15:16:07.592Z,20.10
2022-09-17T15:18:39.137Z,20.00
2022-09-17T15:21:23.591Z,19.90
2022-09-17T15:23:55.791Z,19.90
2022-09-17T15:26:30.267Z,19.80
2022-09-17T15:28:59.573Z,19.80
2022-09-17T15:31:30.411Z,19.80
2022-09-17T15:34:01.185Z,19.90
2022-09-17T15:36:31.767Z,20.00
2022-09-17T15:39:00.510Z,20.10
2022-09-17T15:41:36.191Z,20.20
2022-09-17T15:44:28.455Z,20.30
2022-09-17T15:46:57.799Z,20.30
2022-09-17T15:49:32.218Z,20.30
2022-09-17T15:52:32.814Z,20.30
2022-09-17T15:55:01.427Z,20.20
2022-09-17T15:57:31.952Z,20.10
2022-09-17T16:00:09.518Z,20.00
2022-09-17T16:02:37.763Z,19.80
2022-09-17T16:05:50.860Z,19.70
2022-09-17T16:08:26.145Z,19.40
2022-09-17T16:10:54.382Z,19.20
2022-09-17T16:13:27.884Z,19.00
2022-09-17T16:15:57.286Z,18.80
2022-09-17T16:18:25.953Z,18.60
2022-09-17T16:20:54.088Z,18.50
2022-09-17T16:23:22.302Z,18.30
2022-09-17T16:25:52.832Z,18.20
2022-09-17T16:28:21.652Z,18.10
2022-09-17T16:30:50.667Z,18.00
2022-09-17T16:33:20.126Z,17.80
2022-09-17T16:35:48.200Z,17.70
2022-09-17T16:38:16.574Z,17.60
2022-09-17T16:40:47.317Z,17.60
2022-09-17T16:43:17.033Z,17.50
2022-09-17T16:45:45.435Z,17.40
2022-09-17T16:48:13.533Z,17.30
2022-09-17T16:50:43.115Z,17.20
2022-09-17T16:53:11.284Z,17.10
2022-09-17T16:55:40.099Z,17.10
2022-09-17T16:58:08.218Z,17.00
2022-09-17T17:00:38.144Z,16.90
2022-09-17T17:03:07.047Z,16.80
2022-09-17T17:05:38.019Z,16.80
2022-09-17T17:08:06.957Z,16.70
2022-09-17T17:10:35.756Z,16.60
2022-09-17T17:13:04.004Z,16.50
2022-09-17T17:15:32.223Z,16.40
2022-09-17T17:18:01.979Z,16.30
2022-09-17T17:20:32.043Z,16.20
2022-09-17T17:23:00.223Z,16.10
2022-09-17T17:25:28.634Z,16.00
2022-09-17T17:27:57.191Z,15.90
2022-09-17T17:30:25.449Z,15.80
2022-09-17T17:32:54.230Z,15.70
2022-09-17T17:35:25.031Z,15.70
2022-09-17T17:37:53.192Z,15.60
2022-09-17T17:40:21.449Z,15.50
2022-09-17T17:42:53.361Z,15.40
2022-09-17T17:45:21.614Z,15.40
2022-09-17T17:47:53.348Z,15.30
2022-09-17T17:50:21.622Z,15.30
2022-09-17T17:52:51.078Z,15.20
2022-09-17T17:55:19.262Z,15.10
2022-09-17T17:57:47.485Z,15.10
2022-09-17T18:00:17.007Z,15.00
2022-09-17T18:02:45.277Z,14.90
2022-09-17T18:05:13.603Z,14.90
2022-09-17T18:07:41.891Z,14.90
2022-09-17T18:10:13.141Z,14.80
2022-09-17T18:12:41.342Z,14.70
2022-09-17T18:15:09.973Z,14.70
2022-09-17T18:17:38.138Z,14.70
2022-09-17T18:20:07.071Z,14.60
2022-09-17T18:22:35.789Z,14.60
2022-09-17T18:25:04.198Z,14.60
2022-09-17T18:27:33.939Z,14.50
2022-09-17T18:30:02.096Z,14.50
2022-09-17T18:32:30.451Z,14.50
2022-09-17T18:34:58.587Z,14.50
2022-09-17T18:37:26.827Z,14.40
2022-09-17T18:39:59.387Z,14.40
2022-09-17T18:42:28.080Z,14.40
2022-09-17T18:44:57.955Z,14.40
2022-09-17T18:47:26.230Z,14.40
2022-09-17T18:49:55.184Z,14.40
2022-09-17T18:52:23.480Z,14.30
2022-09-17T18:54:51.687Z,14.30
2022-09-17T18:57:19.867Z,14.30
2022-09-17T18:59:48.520Z,14.30
2022-09-17T19:02:18.019Z,14.30
2022-09-17T19:04:46.137Z,14.20
2022-09-17T19:07:14.317Z,14.20
2022-09-17T19:09:42.429Z,14.20
2022-09-17T19:12:10.572Z,14.20
2022-09-17T19:14:38.707Z,14.10
2022-09-17T19:17:07.147Z,14.10
2022-09-17T19:19:36.769Z,14.10
2022-09-17T19:22:07.730Z,14.00
2022-09-17T19:24:36.367Z,14.00
2022-09-17T19:27:04.674Z,14.00
2022-09-17T19:29:33.081Z,13.90
2022-09-17T19:32:01.274Z,13.90
2022-09-17T19:34:29.418Z,13.90
2022-09-17T19:36:58.916Z,13.80
2022-09-17T19:39:27.028Z,13.70
2022-09-17T19:41:55.205Z,13.80
2022-09-17T19:44:23.833Z,13.70
2022-09-17T19:46:53.167Z,13.60
2022-09-17T19:49:21.554Z,13.60
2022-09-17T19:51:49.675Z,13.60
2022-09-17T19:54:19.330Z,13.50
2022-09-17T19:56:47.529Z,13.50
2022-09-17T19:59:15.656Z,13.50
2022-09-17T20:01:48.564Z,13.40
2022-09-17T20:04:18.095Z,13.40
2022-09-17T20:06:46.260Z,13.40
2022-09-17T20:09:14.466Z,13.40
2022-09-17T20:11:44.689Z,13.40
2022-09-17T20:14:14.068Z,13.30
2022-09-17T20:16:43.509Z,13.30
2022-09-17T20:19:15.874Z,13.30
2022-09-17T20:21:44.241Z,13.30
2022-09-17T20:24:14.356Z,13.30
2022-09-17T20:26:46.158Z,13.30
2022-09-17T20:29:14.251Z,13.30
2022-09-17T20:31:42.750Z,13.30
2022-09-17T20:34:14.988Z,13.30
2022-09-17T20:36:44.131Z,13.20
2022-09-17T20:39:19.425Z,13.20
2022-09-17T20:41:52.562Z,13.20
2022-09-17T20:44:21.091Z,13.20
2022-09-17T20:46:49.422Z,13.20
2022-09-17T20:49:18.855Z,13.20
2022-09-17T20:51:47.293Z,13.20
2022-09-17T20:54:15.886Z,13.20
2022-09-17T20:56:45.049Z,13.20
2022-09-17T20:59:19.291Z,13.20
2022-09-17T21:01:49.787Z,13.20
2022-09-17T21:04:20.306Z,13.20
2022-09-17T21:06:52.186Z,13.20
2022-09-17T21:09:20.811Z,13.20
2022-09-17T21:11:50.472Z,13.20
2022-09-17T21:14:25.582Z,13.20
2022-09-17T21:16:55.750Z,13.20
2022-09-17T21:19:25.584Z,13.20
2022-09-17T21:21:54.855Z,13.20
2022-09-17T21:24:24.334Z,13.30
2022-09-17T21:26:54.195Z,13.30
2022-09-17T21:29:23.849Z,13.30
2022-09-17T21:31:52.992Z,13.40
2022-09-17T21:34:21.352Z,13.40
2022-09-17T21:36:51.485Z,13.50
2022-09-17T21:39:21.021Z,13.50
2022-09-17T21:41:49.163Z,13.60
2022-09-17T21:44:17.427Z,13.60
2022-09-17T21:46:47.064Z,13.60
2022-09-17T21:49:16.459Z,13.60
2022-09-17T21:51:44.635Z,13.60
2022-09-17T21:54:15.962Z,13.60
2022-09-17T21:56:45.027Z,13.70
2022-09-17T21:59:15.069Z,13.60
2022-09-17T22:01:46.566Z,13.70
2022-09-17T22:04:18.181Z,13.60
2022-09-17T22:06:47.354Z,13.70
2022-09-17T22:09:17.689Z,13.70
2022-09-17T22:11:46.279Z,13.70
2022-09-17T22:14:15.697Z,13.70
2022-09-17T22:16:45.925Z,13.80
2022-09-17T22:19:17.060Z,13.80
2022-09-17T22:21:47.487Z,13.80
2022-09-17T22:24:17.412Z,13.80
2022-09-17T22:26:49.898Z,13.80
2022-09-17T22:29:23.106Z,13.80
2022-09-17T22:31:51.444Z,13.80
2022-09-17T22:34:22.524Z,13.90
2022-09-17T22:36:50.878Z,13.90
2022-09-17T22:39:21.441Z,13.90
2022-09-17T22:41:50.153Z,13.90
2022-09-17T22:44:20.628Z,13.90
2022-09-17T22:46:50.502Z,13.90
2022-09-17T22:49:20.602Z,13.80
2022-09-17T22:51:48.777Z,13.80
2022-09-17T22:54:18.860Z,13.80
2022-09-17T22:56:48.021Z,13.80
2022-09-17T22:59:18.095Z,13.80
2022-09-17T23:01:46.516Z,13.80
2022-09-17T23:04:14.703Z,13.80
2022-09-17T23:06:44.379Z,13.80
2022-09-17T23:09:13.293Z,13.80
2022-09-17T23:11:41.425Z,13.80
2022-09-17T23:14:11.538Z,13.80
2022-09-17T23:16:44.789Z,13.80
2022-09-17T23:19:14.299Z,13.80
2022-09-17T23:21:44.272Z,13.80
2022-09-17T23:24:17.549Z,13.80
2022-09-17T23:26:45.680Z,13.70
2022-09-17T23:29:13.947Z,13.70
2022-09-17T23:31:42.452Z,13.70
2022-09-17T23:34:11.338Z,13.70
2022-09-17T23:36:40.435Z,13.60
2022-09-17T23:39:12.067Z,13.60
2022-09-17T23:41:43.195Z,13.60
2022-09-17T23:44:15.671Z,13.60
2022-09-17T23:46:45.732Z,13.60
2022-09-17T23:49:14.952Z,13.60
2022-09-17T23:51:43.584Z,13.50
2022-09-17T23:54:13.321Z,13.60
2022-09-17T23:56:41.710Z,13.50
2022-09-17T23:59:11.437Z,13.50
